createdAt,value
2023-05-05T00:00:01.448Z,6.20
2023-05-05T00:02:28.171Z,4.97
2023-05-05T00:04:54.764Z,5.60
2023-05-05T00:07:21.399Z,5.63
2023-05-05T00:09:48.144Z,5.50
2023-05-05T00:12:14.710Z,6.37
2023-05-05T00:14:41.459Z,6.10
2023-05-05T00:17:08.065Z,5.67
2023-05-05T00:19:34.601Z,5.77
2023-05-05T00:22:01.119Z,5.47
2023-05-05T00:24:27.673Z,5.40
2023-05-05T00:26:54.233Z,6.10
2023-05-05T00:29:21.095Z,5.83
2023-05-05T00:31:47.605Z,6.10
2023-05-05T00:34:14.128Z,5.60
2023-05-05T00:36:41.524Z,5.53
2023-05-05T00:39:08.061Z,6.17
2023-05-05T00:41:34.561Z,6.13
2023-05-05T00:44:01.083Z,6.37
2023-05-05T00:46:29.129Z,6.27
2023-05-05T00:48:56.412Z,5.53
2023-05-05T00:51:22.987Z,6.17
2023-05-05T00:53:49.646Z,6.07
2023-05-05T00:56:19.822Z,5.87
2023-05-05T00:58:46.874Z,6.37
2023-05-05T01:01:13.858Z,6.43
2023-05-05T01:03:43.568Z,6.90
2023-05-05T01:06:10.389Z,6.67
2023-05-05T01:08:55.369Z,6.83
2023-05-05T01:11:31.190Z,7.20
2023-05-05T01:13:58.057Z,7.07
2023-05-05T01:16:26.771Z,7.00
2023-05-05T01:19:12.307Z,5.93
2023-05-05T01:21:41.469Z,6.57
2023-05-05T01:24:26.600Z,6.83
2023-05-05T01:26:59.413Z,6.50
2023-05-05T01:29:38.557Z,6.30
2023-05-05T01:32:09.761Z,6.87
2023-05-05T01:34:40.290Z,6.20
2023-05-05T01:37:20.692Z,6.70
2023-05-05T01:39:49.819Z,5.90
2023-05-05T01:42:18.652Z,5.40
2023-05-05T01:44:45.711Z,5.93
2023-05-05T01:47:13.333Z,5.90
2023-05-05T01:49:40.764Z,6.40
2023-05-05T01:52:09.469Z,5.53
2023-05-05T01:54:36.391Z,5.73
2023-05-05T01:57:03.693Z,5.53
2023-05-05T01:59:30.534Z,5.60
2023-05-05T02:01:57.579Z,6.00
2023-05-05T02:04:24.359Z,4.90
2023-05-05T02:06:53.104Z,5.33
2023-05-05T02:09:20.306Z,5.70
2023-05-05T02:11:46.896Z,5.63
2023-05-05T02:14:13.916Z,5.80
2023-05-05T02:16:41.373Z,6.43
2023-05-05T02:19:08.622Z,5.50
2023-05-05T02:21:35.169Z,5.40
2023-05-05T02:24:01.949Z,5.87
2023-05-05T02:26:30.313Z,5.53
2023-05-05T02:29:05.725Z,6.00
2023-05-05T02:31:33.866Z,5.80
2023-05-05T02:34:01.952Z,5.70
2023-05-05T02:36:32.590Z,6.07
2023-05-05T02:39:02.020Z,5.60
2023-05-05T02:41:29.149Z,5.77
2023-05-05T02:43:57.857Z,5.60
2023-05-05T02:46:24.487Z,5.67
2023-05-05T02:48:50.980Z,5.33
2023-05-05T02:51:17.558Z,5.80
2023-05-05T02:53:44.189Z,5.83
2023-05-05T02:56:16.662Z,5.23
2023-05-05T02:58:50.574Z,5.10
2023-05-05T03:01:35.483Z,5.63
2023-05-05T03:04:01.938Z,5.67
2023-05-05T03:06:29.186Z,5.90
2023-05-05T03:08:55.616Z,5.80
2023-05-05T03:11:23.070Z,5.90
2023-05-05T03:13:55.953Z,6.37
2023-05-05T03:16:23.222Z,6.40
2023-05-05T03:18:51.150Z,6.43
2023-05-05T03:21:18.335Z,5.63
2023-05-05T03:23:44.854Z,5.90
2023-05-05T03:26:11.394Z,5.83
2023-05-05T03:28:38.354Z,5.67
2023-05-05T03:31:04.949Z,5.60
2023-05-05T03:33:31.491Z,6.27
2023-05-05T03:35:58.125Z,5.87
2023-05-05T03:38:24.632Z,6.00
2023-05-05T03:40:51.224Z,6.50
2023-05-05T03:43:17.757Z,6.10
2023-05-05T03:45:44.326Z,5.77
2023-05-05T03:48:10.905Z,5.47
2023-05-05T03:50:37.998Z,6.03
2023-05-05T03:53:05.269Z,5.97
2023-05-05T03:55:31.995Z,6.30
2023-05-05T03:57:58.911Z,6.00
2023-05-05T04:00:25.473Z,5.80
2023-05-05T04:02:52.323Z,6.00
2023-05-05T04:05:19.911Z,6.10
2023-05-05T04:07:46.472Z,6.23
2023-05-05T04:10:13.040Z,5.77
2023-05-05T04:12:39.582Z,6.13
2023-05-05T04:15:26.192Z,6.53
2023-05-05T04:18:12.745Z,6.23
2023-05-05T04:20:59.348Z,6.00
2023-05-05T04:23:36.387Z,6.67
2023-05-05T04:26:22.860Z,6.50
2023-05-05T04:29:09.900Z,5.97
2023-05-05T04:31:56.932Z,6.03
2023-05-05T04:34:43.512Z,6.03
2023-05-05T04:37:30.032Z,6.13
2023-05-05T04:39:58.659Z,6.43
2023-05-05T04:42:45.121Z,5.80
2023-05-05T04:45:31.542Z,6.50
2023-05-05T04:47:58.582Z,6.10
2023-05-05T04:50:25.314Z,5.40
2023-05-05T04:52:52.805Z,6.07
2023-05-05T04:55:19.633Z,6.10
2023-05-05T04:57:46.268Z,6.53
2023-05-05T05:00:12.941Z,5.77
2023-05-05T05:02:39.650Z,6.60
2023-05-05T05:05:06.456Z,6.73
2023-05-05T05:07:33.081Z,6.03
2023-05-05T05:09:59.622Z,6.13
2023-05-05T05:12:26.254Z,6.27
2023-05-05T05:14:52.739Z,6.50
2023-05-05T05:17:19.867Z,6.20
2023-05-05T05:19:46.436Z,6.83
2023-05-05T05:22:12.917Z,6.37
2023-05-05T05:24:39.428Z,6.27
2023-05-05T05:27:09.844Z,6.27
2023-05-05T05:29:36.817Z,7.37
2023-05-05T05:32:03.438Z,6.33
2023-05-05T05:34:30.063Z,6.37
2023-05-05T05:36:56.661Z,6.40
2023-05-05T05:39:23.411Z,7.00
2023-05-05T05:41:50.112Z,6.40
2023-05-05T05:44:16.732Z,6.37
2023-05-05T05:46:43.387Z,6.87
2023-05-05T05:49:10.154Z,6.10
2023-05-05T05:51:36.799Z,5.63
2023-05-05T05:54:03.451Z,6.00
2023-05-05T05:56:30.042Z,6.50
2023-05-05T05:58:56.689Z,6.80
2023-05-05T06:01:23.253Z,6.47
2023-05-05T06:03:49.898Z,7.10
2023-05-05T06:06:16.564Z,6.30
2023-05-05T06:08:43.284Z,6.50
2023-05-05T06:11:09.787Z,6.13
2023-05-05T06:13:36.568Z,6.27
2023-05-05T06:16:03.449Z,6.53
2023-05-05T06:18:30.292Z,6.20
2023-05-05T06:20:57.593Z,5.93
2023-05-05T06:23:24.885Z,6.00
2023-05-05T06:25:51.651Z,6.50
2023-05-05T06:28:18.730Z,5.90
2023-05-05T06:30:45.433Z,5.43
2023-05-05T06:33:12.151Z,5.40
2023-05-05T06:35:38.751Z,6.20
2023-05-05T06:38:05.303Z,6.20
2023-05-05T06:40:31.931Z,5.20
2023-05-05T06:42:58.460Z,6.03
2023-05-05T06:45:25.122Z,5.47
2023-05-05T06:47:52.486Z,5.40
2023-05-05T06:50:19.748Z,5.73
2023-05-05T06:52:46.295Z,6.07
2023-05-05T06:55:12.828Z,5.70
2023-05-05T06:57:39.430Z,5.70
2023-05-05T07:00:08.222Z,6.00
2023-05-05T07:02:34.980Z,5.80
2023-05-05T07:05:02.005Z,5.73
2023-05-05T07:07:28.563Z,5.70
2023-05-05T07:09:55.123Z,5.57
2023-05-05T07:12:21.954Z,5.73
2023-05-05T07:14:48.521Z,5.40
2023-05-05T07:17:15.204Z,5.90
2023-05-05T07:19:42.011Z,5.90
2023-05-05T07:22:08.680Z,6.27
2023-05-05T07:24:35.191Z,5.80
2023-05-05T07:27:01.747Z,6.13
2023-05-05T07:29:28.329Z,5.87
2023-05-05T07:31:54.858Z,5.87
2023-05-05T07:34:21.582Z,6.20
2023-05-05T07:36:48.291Z,6.30
2023-05-05T07:39:15.428Z,6.53
2023-05-05T07:41:42.618Z,6.77
2023-05-05T07:44:09.223Z,6.43
2023-05-05T07:46:35.776Z,6.20
2023-05-05T07:49:02.269Z,6.07
2023-05-05T07:51:28.890Z,6.60
2023-05-05T07:53:55.790Z,6.97
2023-05-05T07:56:22.244Z,6.00
2023-05-05T07:58:48.937Z,6.37
2023-05-05T08:01:16.166Z,6.87
2023-05-05T08:03:42.828Z,6.43
2023-05-05T08:06:10.526Z,6.43
2023-05-05T08:08:37.602Z,5.73
2023-05-05T08:11:06.754Z,7.03
2023-05-05T08:13:33.852Z,6.30
2023-05-05T08:16:00.984Z,6.37
2023-05-05T08:18:27.923Z,6.13
2023-05-05T08:20:54.852Z,6.20
2023-05-05T08:23:21.632Z,6.13
2023-05-05T08:25:48.245Z,5.97
2023-05-05T08:28:14.935Z,6.43
2023-05-05T08:30:41.797Z,5.83
2023-05-05T08:33:08.362Z,6.23
2023-05-05T08:35:34.925Z,6.83
2023-05-05T08:38:02.845Z,6.50
2023-05-05T08:40:31.920Z,6.03
2023-05-05T08:42:59.099Z,6.77
2023-05-05T08:45:26.333Z,6.77
2023-05-05T08:47:52.876Z,7.60
2023-05-05T08:50:20.218Z,7.10
2023-05-05T08:52:51.376Z,7.57
2023-05-05T08:55:28.021Z,7.10
2023-05-05T08:57:56.557Z,6.93
2023-05-05T09:00:23.730Z,7.23
2023-05-05T09:02:51.370Z,9.70
2023-05-05T09:05:18.521Z,10.10
2023-05-05T09:07:45.299Z,9.63
2023-05-05T09:10:12.349Z,10.90
2023-05-05T09:12:42.497Z,11.23
2023-05-05T09:15:10.519Z,9.43
2023-05-05T09:17:37.840Z,10.30
2023-05-05T09:20:07.182Z,10.67
2023-05-05T09:22:33.677Z,10.67
2023-05-05T09:25:00.311Z,10.43
2023-05-05T09:27:27.099Z,8.77
2023-05-05T09:29:54.388Z,9.43
2023-05-05T09:32:21.110Z,9.73
2023-05-05T09:34:57.236Z,8.50
2023-05-05T09:37:27.796Z,8.70
2023-05-05T09:39:55.461Z,8.23
2023-05-05T09:42:22.034Z,8.27
2023-05-05T09:44:48.800Z,9.07
2023-05-05T09:47:28.517Z,8.80
2023-05-05T09:49:58.972Z,8.17
2023-05-05T09:52:25.561Z,8.87
2023-05-05T09:54:58.509Z,9.53
2023-05-05T09:57:26.132Z,7.80
2023-05-05T09:59:59.730Z,8.30
2023-05-05T10:02:33.017Z,8.50
2023-05-05T10:05:13.482Z,8.57
2023-05-05T10:07:41.422Z,8.30
2023-05-05T10:10:09.573Z,8.27
2023-05-05T10:12:37.130Z,8.77
2023-05-05T10:15:04.216Z,8.57
2023-05-05T10:17:32.340Z,8.53
2023-05-05T10:20:00.531Z,8.87
2023-05-05T10:22:29.329Z,8.23
2023-05-05T10:25:11.597Z,9.03
2023-05-05T10:27:42.496Z,8.47
2023-05-05T10:30:13.121Z,8.40
2023-05-05T10:33:04.368Z,9.07
2023-05-05T10:35:42.025Z,8.33
2023-05-05T10:38:09.016Z,8.40
2023-05-05T10:40:35.797Z,8.57
2023-05-05T10:43:02.372Z,8.20
2023-05-05T10:45:29.181Z,9.67
2023-05-05T10:47:58.493Z,8.43
2023-05-05T10:50:24.979Z,8.17
2023-05-05T10:53:09.949Z,9.10
2023-05-05T10:55:39.481Z,9.07
2023-05-05T10:58:06.462Z,8.00
2023-05-05T11:00:39.182Z,8.93
2023-05-05T11:03:17.799Z,9.10
2023-05-05T11:06:03.211Z,8.80
2023-05-05T11:08:30.587Z,8.77
2023-05-05T11:10:57.226Z,9.47
2023-05-05T11:13:24.010Z,9.83
2023-05-05T11:15:57.290Z,9.63
2023-05-05T11:18:36.113Z,10.40
2023-05-05T11:21:03.765Z,10.80
2023-05-05T11:23:30.699Z,10.70
2023-05-05T11:25:57.798Z,10.70
2023-05-05T11:28:31.555Z,10.17
2023-05-05T11:31:01.153Z,10.40
2023-05-05T11:33:29.130Z,10.87
2023-05-05T11:35:58.472Z,10.70
2023-05-05T11:38:45.514Z,11.10
2023-05-05T11:41:31.205Z,10.87
2023-05-05T11:44:10.932Z,11.33
2023-05-05T11:46:39.292Z,11.57
2023-05-05T11:49:06.638Z,11.52
2023-05-05T11:51:33.343Z,11.40
2023-05-05T11:53:59.925Z,11.73
2023-05-05T11:56:26.635Z,12.55
2023-05-05T11:59:11.263Z,11.75
2023-05-05T12:01:41.578Z,12.85
2023-05-05T12:04:11.481Z,11.65
2023-05-05T12:06:38.581Z,13.10
2023-05-05T12:09:05.589Z,13.20
2023-05-05T12:11:32.075Z,13.13
2023-05-05T12:14:09.502Z,12.77
2023-05-05T12:16:36.220Z,12.75
2023-05-05T12:19:03.232Z,13.02
2023-05-05T12:21:29.810Z,11.90
2023-05-05T12:23:56.466Z,13.65
2023-05-05T12:26:28.704Z,13.60
2023-05-05T12:28:55.659Z,14.68
2023-05-05T12:31:22.193Z,14.13
2023-05-05T12:33:49.143Z,12.85
2023-05-05T12:36:16.485Z,12.93
2023-05-05T12:38:43.049Z,14.43
2023-05-05T12:41:09.739Z,13.07
2023-05-05T12:43:37.756Z,13.60
2023-05-05T12:46:04.483Z,13.85
2023-05-05T12:48:31.653Z,12.35
2023-05-05T12:51:18.590Z,13.60
2023-05-05T12:53:49.284Z,13.07
2023-05-05T12:56:34.422Z,12.60
2023-05-05T12:59:01.876Z,14.05
2023-05-05T13:01:28.934Z,13.38
2023-05-05T13:04:05.270Z,13.80
2023-05-05T13:06:32.752Z,13.93
2023-05-05T13:08:59.432Z,13.38
2023-05-05T13:11:26.057Z,13.45
2023-05-05T13:13:52.556Z,14.02
2023-05-05T13:16:19.340Z,13.68
2023-05-05T13:18:46.488Z,13.85
2023-05-05T13:21:13.037Z,11.27
2023-05-05T13:23:42.711Z,14.20
2023-05-05T13:26:09.216Z,11.93
2023-05-05T13:28:35.814Z,11.45
2023-05-05T13:31:02.328Z,12.55
2023-05-05T13:33:28.912Z,11.85
2023-05-05T13:35:56.003Z,13.02
2023-05-05T13:38:22.515Z,11.70
2023-05-05T13:40:49.049Z,11.30
2023-05-05T13:43:16.262Z,11.88
2023-05-05T13:45:42.810Z,11.50
2023-05-05T13:48:09.359Z,12.23
2023-05-05T13:50:35.976Z,11.70
2023-05-05T13:53:02.928Z,12.30
2023-05-05T13:55:29.823Z,11.48
2023-05-05T13:57:56.711Z,12.50
2023-05-05T14:00:23.458Z,12.13
2023-05-05T14:02:50.176Z,11.47
2023-05-05T14:05:16.795Z,12.40
2023-05-05T14:07:43.381Z,12.50
2023-05-05T14:10:10.278Z,12.70
2023-05-05T14:12:36.893Z,12.17
2023-05-05T14:15:03.526Z,12.57
2023-05-05T14:17:30.189Z,12.20
2023-05-05T14:19:56.902Z,13.40
2023-05-05T14:22:23.603Z,12.37
2023-05-05T14:24:50.276Z,12.30
2023-05-05T14:27:16.965Z,12.27
2023-05-05T14:29:43.439Z,11.57
2023-05-05T14:32:10.080Z,12.20
2023-05-05T14:34:36.754Z,12.60
2023-05-05T14:37:03.403Z,11.77
2023-05-05T14:39:30.197Z,13.40
2023-05-05T14:41:56.769Z,11.70
2023-05-05T14:44:23.412Z,11.67
2023-05-05T14:46:51.132Z,12.47
2023-05-05T14:49:17.809Z,11.77
2023-05-05T14:51:44.281Z,12.50
2023-05-05T14:54:24.297Z,12.23
2023-05-05T14:56:54.261Z,12.23
2023-05-05T14:59:20.943Z,12.50
2023-05-05T15:01:48.268Z,12.37
2023-05-05T15:04:14.887Z,11.30
2023-05-05T15:06:41.453Z,11.63
2023-05-05T15:09:08.254Z,11.03
2023-05-05T15:11:34.740Z,10.03
2023-05-05T15:14:01.324Z,11.10
2023-05-05T15:16:27.959Z,10.53
2023-05-05T15:18:54.798Z,10.47
2023-05-05T15:21:21.397Z,10.43
2023-05-05T15:23:47.928Z,10.70
2023-05-05T15:26:14.393Z,10.47
2023-05-05T15:28:41.295Z,10.67
2023-05-05T15:31:07.937Z,10.40
2023-05-05T15:33:34.854Z,10.80
2023-05-05T15:36:01.514Z,11.83
2023-05-05T15:38:29.123Z,6.33
2023-05-05T15:40:55.793Z,4.47
2023-05-05T15:43:22.295Z,5.77
2023-05-05T15:45:48.968Z,6.77
2023-05-05T15:48:15.633Z,4.93
2023-05-05T15:50:42.165Z,5.63
2023-05-05T15:53:08.715Z,4.93
2023-05-05T15:55:35.815Z,5.03
2023-05-05T15:58:02.384Z,5.07
2023-05-05T16:00:32.201Z,5.87
2023-05-05T16:02:58.966Z,5.93
2023-05-05T16:05:25.724Z,6.10
2023-05-05T16:07:53.848Z,7.47
2023-05-05T16:10:20.694Z,6.23
2023-05-05T16:12:47.508Z,5.17
2023-05-05T16:15:14.157Z,4.97
2023-05-05T16:17:40.996Z,6.10
2023-05-05T16:20:07.878Z,5.60
2023-05-05T16:22:34.453Z,6.13
2023-05-05T16:25:00.965Z,5.53
2023-05-05T16:27:27.663Z,4.87
2023-05-05T16:29:54.245Z,5.10
2023-05-05T16:32:20.813Z,5.10
2023-05-05T16:34:47.495Z,4.80
2023-05-05T16:37:14.001Z,3.77
2023-05-05T16:39:41.297Z,3.90
2023-05-05T16:42:09.349Z,4.23
2023-05-05T16:44:36.750Z,3.63
2023-05-05T16:47:03.354Z,4.40
2023-05-05T16:49:30.149Z,4.13
2023-05-05T16:51:57.275Z,4.30
2023-05-05T16:54:24.681Z,4.10
2023-05-05T16:56:53.357Z,3.63
2023-05-05T16:59:20.104Z,3.43
2023-05-05T17:01:46.960Z,3.20
2023-05-05T17:04:13.676Z,3.17
2023-05-05T17:06:41.338Z,3.13
2023-05-05T17:09:08.034Z,3.30
2023-05-05T17:11:34.812Z,3.20
2023-05-05T17:14:02.017Z,3.20
2023-05-05T17:16:28.677Z,3.00
2023-05-05T17:18:55.255Z,3.23
2023-05-05T17:21:21.824Z,3.43
2023-05-05T17:23:48.484Z,3.73
2023-05-05T17:26:15.718Z,3.43
2023-05-05T17:28:42.548Z,3.20
2023-05-05T17:31:09.165Z,3.30
2023-05-05T17:33:35.702Z,3.63
2023-05-05T17:36:02.266Z,3.40
2023-05-05T17:38:28.859Z,4.33
2023-05-05T17:40:55.513Z,3.87
2023-05-05T17:43:22.098Z,3.73
2023-05-05T17:45:48.881Z,4.03
2023-05-05T17:48:15.907Z,4.10
2023-05-05T17:50:43.417Z,3.80
2023-05-05T17:53:10.800Z,3.57
2023-05-05T17:55:37.492Z,3.57
2023-05-05T17:58:04.104Z,3.87
2023-05-05T18:00:30.704Z,3.97
2023-05-05T18:02:57.280Z,3.73
2023-05-05T18:05:23.804Z,3.77
2023-05-05T18:07:50.471Z,3.80
2023-05-05T18:10:17.116Z,3.53
2023-05-05T18:12:43.909Z,3.60
2023-05-05T18:15:11.311Z,4.03
2023-05-05T18:17:38.271Z,3.80
2023-05-05T18:20:07.116Z,3.83
2023-05-05T18:22:34.129Z,4.00
2023-05-05T18:25:01.594Z,4.50
2023-05-05T18:27:29.110Z,4.20
2023-05-05T18:29:55.716Z,3.83
2023-05-05T18:32:22.499Z,4.27
2023-05-05T18:34:49.838Z,3.93
2023-05-05T18:37:16.509Z,4.67
2023-05-05T18:39:44.146Z,4.60
2023-05-05T18:42:13.823Z,4.50
2023-05-05T18:44:42.697Z,4.07
2023-05-05T18:47:10.807Z,4.47
2023-05-05T18:49:40.697Z,4.60
2023-05-05T18:52:09.865Z,4.83
2023-05-05T18:54:49.480Z,4.70
2023-05-05T18:57:17.095Z,4.70
2023-05-05T19:02:33.509Z,4.60
2023-05-05T19:05:01.281Z,4.77
2023-05-05T19:07:35.485Z,5.10
2023-05-05T19:10:04.146Z,4.87
2023-05-05T19:12:30.856Z,4.40
2023-05-05T19:14:57.501Z,4.37
2023-05-05T19:17:24.103Z,5.33
2023-05-05T19:19:50.854Z,4.50
2023-05-05T19:22:17.722Z,5.13
2023-05-05T19:24:44.314Z,4.83
2023-05-05T19:27:15.504Z,4.90
2023-05-05T19:29:43.205Z,4.33
2023-05-05T19:32:09.969Z,5.10
2023-05-05T19:34:36.708Z,4.93
2023-05-05T19:37:03.350Z,5.23
2023-05-05T19:39:30.076Z,5.30
2023-05-05T19:41:56.721Z,5.47
2023-05-05T19:44:24.055Z,5.60
2023-05-05T19:46:52.844Z,5.77
2023-05-05T19:49:19.576Z,6.10
2023-05-05T19:51:47.924Z,6.20
2023-05-05T19:54:14.540Z,5.87
2023-05-05T19:56:42.020Z,5.90
2023-05-05T19:59:09.365Z,6.07
2023-05-05T20:01:36.102Z,6.27
2023-05-05T20:04:03.814Z,6.40
2023-05-05T20:06:30.528Z,7.07
2023-05-05T20:08:57.177Z,6.90
2023-05-05T20:11:25.105Z,7.70
2023-05-05T20:13:51.844Z,8.00
2023-05-05T20:16:18.840Z,7.77
2023-05-05T20:18:45.543Z,7.17
2023-05-05T20:21:12.233Z,8.60
2023-05-05T20:23:39.129Z,7.93
2023-05-05T20:26:06.425Z,7.07
2023-05-05T20:28:33.148Z,8.07
2023-05-05T20:31:01.026Z,7.47
2023-05-05T20:33:28.373Z,7.63
2023-05-05T20:35:55.204Z,7.53
2023-05-05T20:38:21.932Z,9.37
2023-05-05T20:40:48.744Z,8.07
2023-05-05T20:43:15.363Z,10.00
2023-05-05T20:45:42.191Z,8.47
2023-05-05T20:48:11.417Z,8.27
2023-05-05T20:50:38.852Z,10.37
2023-05-05T20:53:07.448Z,9.70
2023-05-05T20:55:34.026Z,15.77
2023-05-05T20:58:00.769Z,10.43
2023-05-05T21:00:27.508Z,11.73
2023-05-05T21:02:54.347Z,11.90
2023-05-05T21:05:21.012Z,12.53
2023-05-05T21:07:47.702Z,11.80
2023-05-05T21:10:14.201Z,11.37
2023-05-05T21:12:41.377Z,9.83
2023-05-05T21:15:08.614Z,10.53
2023-05-05T21:17:35.385Z,11.27
2023-05-05T21:20:01.956Z,11.07
2023-05-05T21:22:28.519Z,9.80
2023-05-05T21:24:55.058Z,9.53
2023-05-05T21:27:21.847Z,9.93
2023-05-05T21:29:50.191Z,10.30
2023-05-05T21:32:17.078Z,8.87
2023-05-05T21:34:43.657Z,9.87
2023-05-05T21:37:12.052Z,9.17
2023-05-05T21:39:38.710Z,10.03
2023-05-05T21:42:05.220Z,10.13
2023-05-05T21:44:31.749Z,9.93
2023-05-05T21:46:58.322Z,10.30
2023-05-05T21:49:24.805Z,10.10
2023-05-05T21:51:51.409Z,10.70
2023-05-05T21:54:18.034Z,10.03
2023-05-05T21:56:44.977Z,10.53
2023-05-05T21:59:11.633Z,9.97
2023-05-05T22:01:38.202Z,10.27
2023-05-05T22:04:05.021Z,10.67
2023-05-05T22:06:32.580Z,10.10
2023-05-05T22:08:59.160Z,11.70
2023-05-05T22:11:26.020Z,11.50
2023-05-05T22:13:52.949Z,12.00
2023-05-05T22:16:19.833Z,12.07
2023-05-05T22:18:46.930Z,12.83
2023-05-05T22:21:13.496Z,12.47
2023-05-05T22:23:42.025Z,12.90
2023-05-05T22:26:09.084Z,12.97
2023-05-05T22:28:35.781Z,10.20
2023-05-05T22:31:02.557Z,13.53
2023-05-05T22:33:29.150Z,14.13
2023-05-05T22:35:55.776Z,13.43
2023-05-05T22:38:22.472Z,13.73
2023-05-05T22:40:49.149Z,14.03
2023-05-05T22:43:15.833Z,14.53
2023-05-05T22:45:43.333Z,14.53
2023-05-05T22:48:10.583Z,15.37
2023-05-05T22:50:37.636Z,14.87
2023-05-05T22:53:04.201Z,15.10
2023-05-05T22:55:30.955Z,14.73
2023-05-05T22:57:57.545Z,15.10
2023-05-05T23:00:24.601Z,17.07
2023-05-05T23:02:51.615Z,15.97
2023-05-05T23:05:18.256Z,16.23
2023-05-05T23:07:44.812Z,15.63
2023-05-05T23:10:11.661Z,15.13
2023-05-05T23:12:38.425Z,16.80
2023-05-05T23:15:05.729Z,16.83
2023-05-05T23:17:32.277Z,15.37
2023-05-05T23:19:59.383Z,15.67
2023-05-05T23:22:26.518Z,15.87
2023-05-05T23:24:53.950Z,14.33
2023-05-05T23:27:20.682Z,13.73
2023-05-05T23:29:47.185Z,14.20
2023-05-05T23:32:13.729Z,14.00
2023-05-05T23:34:40.348Z,13.77
2023-05-05T23:37:06.853Z,12.57
2023-05-05T23:39:34.308Z,13.37
2023-05-05T23:42:00.784Z,11.97
2023-05-05T23:44:30.435Z,11.40
2023-05-05T23:46:56.958Z,10.27
2023-05-05T23:49:25.023Z,11.37
2023-05-05T23:51:51.582Z,10.70
2023-05-05T23:54:18.129Z,12.40
2023-05-05T23:56:47.675Z,11.90
2023-05-05T23:59:14.255Z,11.47
